createdAt,value
2023-03-06T00:02:37.398Z,99827.13
2023-03-06T00:05:38.884Z,99827.25
2023-03-06T00:08:40.284Z,99826.44
2023-03-06T00:11:41.703Z,99835.09
2023-03-06T00:14:43.254Z,99831.69
2023-03-06T00:17:44.768Z,99820.38
2023-03-06T00:20:46.232Z,99815.25
2023-03-06T00:23:47.680Z,99813.56
2023-03-06T00:26:50.789Z,99826.59
2023-03-06T00:29:57.703Z,99819.63
2023-03-06T00:32:59.165Z,99815.28
2023-03-06T00:36:00.594Z,99815.41
2023-03-06T00:39:02.002Z,99808.53
2023-03-06T00:42:03.467Z,99802.44
2023-03-06T00:45:05.383Z,99797.22
2023-03-06T00:48:06.815Z,99796.31
2023-03-06T00:51:08.300Z,99795.47
2023-03-06T00:54:09.691Z,99798.06
2023-03-06T00:57:11.449Z,99791.13
2023-03-06T01:00:13.695Z,99778.25
2023-03-06T01:03:15.188Z,99788.69
2023-03-06T01:06:17.423Z,99786.09
2023-03-06T01:09:18.818Z,99779.16
2023-03-06T01:12:22.854Z,99773.84
2023-03-06T01:15:25.728Z,99781.66
2023-03-06T01:18:27.195Z,99775.69
2023-03-06T01:21:30.055Z,99765.38
2023-03-06T01:24:31.467Z,99766.34
2023-03-06T01:27:32.885Z,99746.34
2023-03-06T01:30:34.278Z,99753.25
2023-03-06T01:33:36.500Z,99751.41
2023-03-06T01:36:37.903Z,99745.41
2023-03-06T01:39:39.808Z,99737.63
2023-03-06T01:42:42.030Z,99737.59
2023-03-06T01:45:49.596Z,99726.97
2023-03-06T01:49:21.039Z,99722.78
2023-03-06T01:52:25.330Z,99717.63
2023-03-06T01:55:33.689Z,99712.41
2023-03-06T01:58:35.663Z,99718.53
2023-03-06T02:01:39.367Z,99699.59
2023-03-06T02:04:42.484Z,99712.53
2023-03-06T02:07:45.878Z,99710.88
2023-03-06T02:11:17.847Z,99701.28
2023-03-06T02:14:19.304Z,99694.31
2023-03-06T02:17:22.760Z,99702.09
2023-03-06T02:20:31.160Z,99694.28
2023-03-06T02:27:54.693Z,99693.25
2023-03-06T02:30:56.681Z,99686.31
2023-03-06T02:34:03.792Z,99683.66
2023-03-06T02:37:09.630Z,99685.41
2023-03-06T02:40:14.825Z,99683.59
2023-03-06T02:43:21.954Z,99679.25
2023-03-06T02:46:23.576Z,99675.75
2023-03-06T02:49:26.511Z,99676.53
2023-03-06T02:52:28.047Z,99668.69
2023-03-06T02:55:30.911Z,99667.81
2023-03-06T02:58:32.390Z,99664.47
2023-03-06T03:01:34.486Z,99662.72
2023-03-06T03:04:36.007Z,99661.00
2023-03-06T03:07:38.093Z,99657.72
2023-03-06T03:10:39.707Z,99660.38
2023-03-06T03:13:41.518Z,99654.25
2023-03-06T03:16:47.372Z,99656.06
2023-03-06T03:19:48.863Z,99647.44
2023-03-06T03:22:53.249Z,99646.59
2023-03-06T03:25:54.660Z,99645.75
2023-03-06T03:28:56.129Z,99654.28
2023-03-06T03:31:57.584Z,99647.44
2023-03-06T03:35:01.273Z,99642.28
2023-03-06T03:38:03.497Z,99640.47
2023-03-06T03:41:05.518Z,99640.41
2023-03-06T03:44:08.418Z,99636.94
2023-03-06T03:47:10.140Z,99637.00
2023-03-06T03:50:11.975Z,99630.03
2023-03-06T03:53:14.394Z,99629.28
2023-03-06T03:56:16.923Z,99628.50
2023-03-06T03:59:29.618Z,99628.50
2023-03-06T04:02:43.680Z,99621.56
2023-03-06T04:05:57.850Z,99613.75
2023-03-06T04:09:00.048Z,99616.34
2023-03-06T04:12:01.740Z,99615.56
2023-03-06T04:15:06.075Z,99611.34
2023-03-06T04:18:09.628Z,99609.47
2023-03-06T04:21:11.274Z,99604.38
2023-03-06T04:24:13.604Z,99602.66
2023-03-06T04:27:15.704Z,99602.72
2023-03-06T04:30:17.364Z,99599.31
2023-03-06T04:33:18.847Z,99587.22
2023-03-06T04:36:32.190Z,99587.03
2023-03-06T04:39:38.931Z,99588.72
2023-03-06T04:42:40.336Z,99584.38
2023-03-06T04:45:41.783Z,99584.47
2023-03-06T04:48:43.658Z,99575.91
2023-03-06T04:51:45.051Z,99584.63
2023-03-06T04:54:46.451Z,99578.53
2023-03-06T04:57:48.190Z,99577.69
2023-03-06T05:00:49.786Z,99571.47
2023-03-06T05:03:51.250Z,99569.94
2023-03-06T05:06:52.665Z,99575.09
2023-03-06T05:09:54.097Z,99569.84
2023-03-06T05:12:55.528Z,99563.78
2023-03-06T05:16:02.385Z,99572.41
2023-03-06T05:19:03.951Z,99562.91
2023-03-06T05:22:05.416Z,99567.19
2023-03-06T05:25:07.651Z,99568.84
2023-03-06T05:28:09.269Z,99568.03
2023-03-06T05:31:10.688Z,99563.78
2023-03-06T05:34:16.580Z,99560.84
2023-03-06T05:37:17.978Z,99562.41
2023-03-06T05:40:19.676Z,99562.66
2023-03-06T05:43:22.184Z,99561.88
2023-03-06T05:46:23.604Z,99549.75
2023-03-06T05:49:25.202Z,99556.69
2023-03-06T05:52:26.619Z,99552.41
2023-03-06T05:55:28.149Z,99554.13
2023-03-06T05:58:30.546Z,99555.84
2023-03-06T06:01:32.018Z,99552.16
2023-03-06T06:04:33.452Z,99558.31
2023-03-06T06:07:35.148Z,99564.50
2023-03-06T06:10:36.572Z,99563.56
2023-03-06T06:13:38.989Z,99563.63
2023-03-06T06:16:40.955Z,99552.41
2023-03-06T06:19:42.572Z,99561.16
2023-03-06T06:22:44.060Z,99559.44
2023-03-06T06:25:45.634Z,99562.94
2023-03-06T06:28:47.040Z,99567.16
2023-03-06T06:31:48.800Z,99563.63
2023-03-06T06:34:50.224Z,99560.16
2023-03-06T06:37:51.745Z,99559.97
2023-03-06T06:41:26.800Z,99574.72
2023-03-06T06:44:16.116Z,99573.13
2023-03-06T06:47:22.795Z,99572.47
2023-03-06T06:50:25.430Z,99570.69
2023-03-06T06:53:28.059Z,99581.91
2023-03-06T06:56:29.678Z,99585.25
2023-03-06T06:59:31.073Z,99585.25
2023-03-06T07:02:32.824Z,99593.00
2023-03-06T07:05:34.478Z,99594.06
2023-03-06T07:08:36.123Z,99593.78
2023-03-06T07:11:38.634Z,99592.16
2023-03-06T07:14:41.377Z,99600.81
2023-03-06T07:17:42.784Z,99602.47
2023-03-06T07:20:44.254Z,99598.91
2023-03-06T07:23:45.673Z,99599.78
2023-03-06T07:26:48.166Z,99600.50
2023-03-06T07:29:49.559Z,99596.13
2023-03-06T07:32:56.356Z,99590.13
2023-03-06T07:35:58.254Z,99591.78
2023-03-06T07:38:59.836Z,99590.88
2023-03-06T07:42:01.314Z,99594.25
2023-03-06T07:45:04.389Z,99596.06
2023-03-06T07:48:06.511Z,99594.97
2023-03-06T07:51:14.159Z,99600.22
2023-03-06T07:54:15.670Z,99593.22
2023-03-06T07:57:17.143Z,99600.13
2023-03-06T08:00:19.096Z,99594.16
2023-03-06T08:03:20.552Z,99594.97
2023-03-06T08:06:24.650Z,99592.28
2023-03-06T08:09:26.207Z,99602.63
2023-03-06T08:12:27.644Z,99599.22
2023-03-06T08:15:29.071Z,99602.50
2023-03-06T08:18:30.808Z,99608.53
2023-03-06T08:21:32.325Z,99613.75
2023-03-06T08:24:34.558Z,99606.84
2023-03-06T08:27:36.140Z,99616.31
2023-03-06T08:30:37.526Z,99614.69
2023-03-06T08:33:39.491Z,99618.72
2023-03-06T08:36:41.182Z,99612.72
2023-03-06T08:39:42.568Z,99609.13
2023-03-06T08:47:17.133Z,99607.75
2023-03-06T08:50:19.020Z,99620.59
2023-03-06T08:53:22.710Z,99622.09
2023-03-06T08:56:31.932Z,99627.81
2023-03-06T08:59:33.397Z,99625.38
2023-03-06T09:02:35.387Z,99636.59
2023-03-06T09:05:37.165Z,99632.47
2023-03-06T09:08:42.834Z,99630.47
2023-03-06T09:11:44.346Z,99628.97
2023-03-06T09:14:45.733Z,99635.25
2023-03-06T09:17:47.683Z,99635.13
2023-03-06T09:20:49.085Z,99632.28
2023-03-06T09:23:51.020Z,99632.50
2023-03-06T09:26:52.412Z,99640.22
2023-03-06T09:29:54.984Z,99633.34
2023-03-06T09:32:56.435Z,99633.38
2023-03-06T09:35:58.524Z,99634.22
2023-03-06T09:39:00.028Z,99636.69
2023-03-06T09:42:01.704Z,99632.50
2023-03-06T09:45:04.831Z,99637.88
2023-03-06T09:48:15.300Z,99636.34
2023-03-06T09:51:22.812Z,99644.13
2023-03-06T09:54:43.820Z,99647.56
2023-03-06T09:57:52.365Z,99644.09
2023-03-06T10:01:06.422Z,99642.13
2023-03-06T10:04:29.980Z,99636.75
2023-03-06T10:07:42.463Z,99626.84
2023-03-06T10:10:50.506Z,99637.41
2023-03-06T10:13:58.740Z,99641.53
2023-03-06T10:17:01.616Z,99642.38
2023-03-06T10:20:15.390Z,99639.97
2023-03-06T10:23:42.004Z,99632.88
2023-03-06T10:26:52.361Z,99630.13
2023-03-06T10:30:12.830Z,99634.97
2023-03-06T10:33:44.846Z,99638.19
2023-03-06T10:36:46.225Z,99629.44
2023-03-06T10:39:54.488Z,99622.53
2023-03-06T10:43:10.619Z,99619.09
2023-03-06T10:46:25.883Z,99623.16
2023-03-06T10:49:34.904Z,99624.97
2023-03-06T10:52:36.446Z,99631.25
2023-03-06T10:55:39.057Z,99620.59
2023-03-06T10:58:40.467Z,99624.84
2023-03-06T11:01:50.552Z,99628.88
2023-03-06T11:04:54.214Z,99624.56
2023-03-06T11:08:01.793Z,99624.06
2023-03-06T11:11:08.477Z,99620.19
2023-03-06T11:14:22.831Z,99617.06
2023-03-06T11:17:29.250Z,99610.81
2023-03-06T11:20:52.090Z,99622.75
2023-03-06T11:23:57.795Z,99610.56
2023-03-06T11:27:09.022Z,99608.75
2023-03-06T11:30:29.403Z,99607.72
2023-03-06T11:33:39.721Z,99606.09
2023-03-06T11:36:48.554Z,99604.53
2023-03-06T11:40:00.773Z,99603.72
2023-03-06T11:43:07.929Z,99600.97
2023-03-06T11:46:19.673Z,99598.31
2023-03-06T11:49:38.122Z,99595.78
2023-03-06T11:52:55.060Z,99604.38
2023-03-06T11:56:06.484Z,99585.28
2023-03-06T11:59:20.448Z,99596.31
2023-03-06T12:02:49.304Z,99585.91
2023-03-06T12:06:03.583Z,99592.88
2023-03-06T12:09:34.411Z,99591.19
2023-03-06T12:12:45.000Z,99591.72
2023-03-06T12:16:24.329Z,99586.31
2023-03-06T12:19:38.799Z,99575.91
2023-03-06T12:23:02.561Z,99574.47
2023-03-06T12:26:53.063Z,99573.63
2023-03-06T12:30:13.354Z,99571.84
2023-03-06T12:33:31.157Z,99568.31
2023-03-06T12:36:59.230Z,99566.34
2023-03-06T12:40:21.660Z,99566.50
2023-03-06T12:43:59.123Z,99559.13
2023-03-06T12:47:10.095Z,99558.03
2023-03-06T12:50:23.825Z,99560.53
2023-03-06T12:53:30.746Z,99556.38
2023-03-06T12:56:33.642Z,99553.69
2023-03-06T12:59:44.279Z,99555.94
2023-03-06T13:02:54.131Z,99547.03
2023-03-06T13:06:17.431Z,99556.28
2023-03-06T13:09:28.738Z,99546.44
2023-03-06T13:12:58.114Z,99543.97
2023-03-06T13:16:18.262Z,99542.22
2023-03-06T13:19:25.010Z,99545.53
2023-03-06T13:22:29.288Z,99549.59
2023-03-06T13:25:32.417Z,99540.75
2023-03-06T13:28:46.108Z,99551.31
2023-03-06T13:31:53.283Z,99548.25
2023-03-06T13:34:54.761Z,99540.13
2023-03-06T13:37:57.708Z,99541.84
2023-03-06T13:41:24.753Z,99553.06
2023-03-06T13:44:26.180Z,99537.63
2023-03-06T13:47:32.139Z,99533.69
2023-03-06T13:50:38.801Z,99533.44
2023-03-06T13:54:06.370Z,99526.25
2023-03-06T13:57:45.438Z,99528.53
2023-03-06T14:01:17.005Z,99523.78
2023-03-06T14:04:21.818Z,99529.31
2023-03-06T14:07:32.056Z,99533.78
2023-03-06T14:10:35.574Z,99527.50
2023-03-06T14:13:47.841Z,99524.94
2023-03-06T14:16:50.911Z,99521.81
2023-03-06T14:19:52.418Z,99518.63
2023-03-06T14:22:53.807Z,99516.88
2023-03-06T14:26:00.544Z,99512.63
2023-03-06T14:29:02.947Z,99511.59
2023-03-06T14:32:10.721Z,99512.25
2023-03-06T14:35:23.168Z,99514.94
2023-03-06T14:38:25.364Z,99515.22
2023-03-06T14:41:30.124Z,99515.66
2023-03-06T14:44:31.668Z,99514.63
2023-03-06T14:47:36.037Z,99515.56
2023-03-06T14:50:40.960Z,99517.38
2023-03-06T14:53:44.514Z,99519.97
2023-03-06T14:56:51.620Z,99513.31
2023-03-06T14:59:59.671Z,99513.97
2023-03-06T15:03:05.328Z,99506.91
2023-03-06T15:06:08.082Z,99506.13
2023-03-06T15:09:21.450Z,99504.06
2023-03-06T15:12:29.761Z,99513.34
2023-03-06T15:15:32.466Z,99501.19
2023-03-06T15:18:38.676Z,99502.13
2023-03-06T15:21:40.170Z,99507.25
2023-03-06T15:24:41.640Z,99507.34
2023-03-06T15:27:49.714Z,99511.06
2023-03-06T15:31:10.467Z,99505.59
2023-03-06T15:34:11.870Z,99510.09
2023-03-06T15:37:28.785Z,99512.78
2023-03-06T15:40:31.867Z,99503.59
2023-03-06T15:43:39.420Z,99500.81
2023-03-06T15:46:41.783Z,99502.63
2023-03-06T15:49:43.311Z,99492.38
2023-03-06T15:52:46.177Z,99493.06
2023-03-06T15:55:48.579Z,99496.41
2023-03-06T15:58:50.101Z,99497.44
2023-03-06T16:01:52.307Z,99491.31
2023-03-06T16:04:53.898Z,99496.25
2023-03-06T16:07:56.301Z,99500.72
2023-03-06T16:10:58.106Z,99498.13
2023-03-06T16:14:01.208Z,99499.00
2023-03-06T16:17:02.641Z,99501.47
2023-03-06T16:20:06.090Z,99493.66
2023-03-06T16:23:10.343Z,99502.38
2023-03-06T16:26:22.988Z,99508.19
2023-03-06T16:29:27.019Z,99506.66
2023-03-06T16:32:28.901Z,99510.25
2023-03-06T16:35:30.706Z,99507.38
2023-03-06T16:38:32.118Z,99506.44
2023-03-06T16:41:33.537Z,99508.47
2023-03-06T16:44:35.034Z,99504.38
2023-03-06T16:47:36.937Z,99513.00
2023-03-06T16:50:39.715Z,99511.44
2023-03-06T16:53:41.195Z,99513.22
2023-03-06T16:56:43.258Z,99518.16
2023-03-06T16:59:44.994Z,99513.00
2023-03-06T17:02:49.578Z,99515.00
2023-03-06T17:05:50.984Z,99518.56
2023-03-06T17:08:52.492Z,99530.13
2023-03-06T17:11:53.971Z,99531.16
2023-03-06T17:14:55.649Z,99531.34
2023-03-06T17:17:57.768Z,99538.16
2023-03-06T17:20:59.976Z,99535.53
2023-03-06T17:24:04.632Z,99529.66
2023-03-06T17:27:06.042Z,99534.94
2023-03-06T17:30:08.012Z,99533.84
2023-03-06T17:33:09.462Z,99546.47
2023-03-06T17:36:12.344Z,99543.66
2023-03-06T17:39:13.841Z,99543.03
2023-03-06T17:42:15.823Z,99553.56
2023-03-06T17:45:17.461Z,99545.84
2023-03-06T17:48:18.982Z,99556.31
2023-03-06T17:51:20.523Z,99558.91
2023-03-06T17:54:22.680Z,99558.75
2023-03-06T17:57:24.422Z,99560.22
2023-03-06T18:00:25.927Z,99555.28
2023-03-06T18:03:27.322Z,99565.00
2023-03-06T18:06:31.597Z,99556.22
2023-03-06T18:09:33.105Z,99551.78
2023-03-06T18:12:34.504Z,99548.25
2023-03-06T18:15:41.979Z,99555.28
2023-03-06T18:18:43.790Z,99552.84
2023-03-06T18:21:47.176Z,99556.94
2023-03-06T18:24:48.764Z,99551.66
2023-03-06T18:27:50.163Z,99556.16
2023-03-06T18:30:51.569Z,99564.84
2023-03-06T18:34:01.394Z,99558.81
2023-03-06T18:37:02.852Z,99553.72
2023-03-06T18:40:04.689Z,99561.69
2023-03-06T18:43:06.081Z,99560.00
2023-03-06T18:46:08.115Z,99549.66
2023-03-06T18:49:11.594Z,99552.00
2023-03-06T18:52:15.164Z,99546.91
2023-03-06T18:55:16.723Z,99554.84
2023-03-06T18:58:19.011Z,99549.75
2023-03-06T19:01:21.035Z,99553.31
2023-03-06T19:04:22.609Z,99559.22
2023-03-06T19:07:24.757Z,99557.59
2023-03-06T19:10:26.918Z,99549.75
2023-03-06T19:13:28.335Z,99551.38
2023-03-06T19:16:31.210Z,99549.81
2023-03-06T19:19:33.242Z,99549.75
2023-03-06T19:22:35.432Z,99556.66
2023-03-06T19:25:36.951Z,99558.53
2023-03-06T19:28:40.318Z,99553.16
2023-03-06T19:31:42.205Z,99545.47
2023-03-06T19:34:43.605Z,99551.19
2023-03-06T19:37:45.026Z,99544.56
2023-03-06T19:40:50.384Z,99547.31
2023-03-06T19:43:54.655Z,99546.41
2023-03-06T19:46:56.216Z,99541.19
2023-03-06T19:49:57.617Z,99546.53
2023-03-06T19:52:59.184Z,99537.72
2023-03-06T19:56:11.236Z,99536.09
2023-03-06T19:59:12.640Z,99539.44
2023-03-06T20:02:16.013Z,99537.78
2023-03-06T20:05:17.738Z,99534.22
2023-03-06T20:08:19.115Z,99529.88
2023-03-06T20:11:26.048Z,99527.50
2023-03-06T20:14:27.573Z,99525.81
2023-03-06T20:17:29.574Z,99520.59
2023-03-06T20:20:31.313Z,99524.00
2023-03-06T20:23:34.101Z,99517.75
2023-03-06T20:26:37.479Z,99515.13
2023-03-06T20:29:43.192Z,99521.59
2023-03-06T20:32:44.657Z,99520.09
2023-03-06T20:35:46.100Z,99516.13
2023-03-06T20:38:48.192Z,99511.00
2023-03-06T20:41:50.146Z,99502.34
2023-03-06T20:44:51.538Z,99500.59
2023-03-06T20:47:56.053Z,99503.41
2023-03-06T20:51:01.708Z,99508.63
2023-03-06T20:54:03.691Z,99504.09
2023-03-06T20:57:05.328Z,99507.59
2023-03-06T21:00:08.630Z,99491.25
2023-03-06T21:03:10.324Z,99495.72
2023-03-06T21:06:11.747Z,99499.03
2023-03-06T21:09:16.289Z,99496.41
2023-03-06T21:12:18.257Z,99494.75
2023-03-06T21:15:20.068Z,99496.28
2023-03-06T21:18:21.484Z,99494.03
2023-03-06T21:21:25.813Z,99494.75
2023-03-06T21:24:27.214Z,99495.69
2023-03-06T21:27:28.639Z,99480.00
2023-03-06T21:30:30.219Z,99485.94
2023-03-06T21:33:31.741Z,99493.81
2023-03-06T21:36:33.655Z,99482.66
2023-03-06T21:39:35.124Z,99483.53
2023-03-06T21:42:37.003Z,99478.44
2023-03-06T21:45:46.981Z,99476.69
2023-03-06T21:48:48.401Z,99472.34
2023-03-06T21:51:49.891Z,99469.78
2023-03-06T21:54:51.304Z,99472.22
2023-03-06T21:57:54.106Z,99468.09
2023-03-06T22:00:55.738Z,99471.56
2023-03-06T22:03:58.405Z,99471.25
2023-03-06T22:06:59.855Z,99463.78
2023-03-06T22:10:01.242Z,99459.63
2023-03-06T22:13:02.671Z,99456.03
2023-03-06T22:16:05.364Z,99452.59
2023-03-06T22:19:07.424Z,99457.75
2023-03-06T22:22:10.723Z,99454.28
2023-03-06T22:25:12.494Z,99449.94
2023-03-06T22:28:15.947Z,99451.81
2023-03-06T22:31:28.743Z,99442.91
2023-03-06T22:34:30.357Z,99440.47
2023-03-06T22:37:31.793Z,99443.88
2023-03-06T22:40:33.513Z,99437.16
2023-03-06T22:43:35.287Z,99439.72
2023-03-06T22:46:36.696Z,99444.06
2023-03-06T22:49:38.164Z,99444.94
2023-03-06T22:52:39.582Z,99436.25
2023-03-06T22:55:41.021Z,99432.88
2023-03-06T22:58:44.604Z,99430.22
2023-03-06T23:01:46.104Z,99432.13
2023-03-06T23:04:53.553Z,99432.88
2023-03-06T23:07:54.988Z,99424.06
2023-03-06T23:10:56.350Z,99421.34
2023-03-06T23:14:18.750Z,99417.16
2023-03-06T23:17:38.699Z,99419.66
2023-03-06T23:20:58.820Z,99414.56
2023-03-06T23:24:19.137Z,99406.91
2023-03-06T23:27:20.536Z,99401.66
2023-03-06T23:30:22.035Z,99399.91
2023-03-06T23:33:23.692Z,99398.00
2023-03-06T23:36:25.749Z,99405.16
2023-03-06T23:39:27.132Z,99407.59
2023-03-06T23:42:28.585Z,99409.22
2023-03-06T23:45:30.277Z,99416.00
2023-03-06T23:48:31.795Z,99410.81
2023-03-06T23:51:33.485Z,99402.25
2023-03-06T23:54:35.725Z,99406.72
2023-03-06T23:57:37.130Z,99404.97
